createdAt,value
2023-01-12T00:00:49.483Z,3.00
2023-01-12T00:03:15.818Z,2.30
2023-01-12T00:05:42.099Z,2.47
2023-01-12T00:08:08.986Z,2.22
2023-01-12T00:10:35.503Z,2.28
2023-01-12T00:13:02.007Z,2.35
2023-01-12T00:15:28.496Z,2.55
2023-01-12T00:17:54.822Z,2.60
2023-01-12T00:20:21.450Z,2.50
2023-01-12T00:22:48.009Z,2.40
2023-01-12T00:25:14.477Z,2.40
2023-01-12T00:27:40.781Z,2.38
2023-01-12T00:30:08.081Z,1.98
2023-01-12T00:32:34.528Z,2.20
2023-01-12T00:35:01.056Z,1.98
2023-01-12T00:37:27.462Z,1.73
2023-01-12T00:40:01.947Z,1.83
2023-01-12T00:42:29.071Z,1.70
2023-01-12T00:44:55.722Z,2.10
2023-01-12T00:47:22.268Z,3.22
2023-01-12T00:49:49.331Z,1.90
2023-01-12T00:52:30.040Z,1.80
2023-01-12T00:54:59.611Z,1.52
2023-01-12T00:57:26.784Z,2.28
2023-01-12T00:59:53.107Z,1.85
2023-01-12T01:02:19.511Z,1.70
2023-01-12T01:04:45.861Z,1.88
2023-01-12T01:07:13.867Z,1.77
2023-01-12T01:09:40.279Z,2.30
2023-01-12T01:12:06.848Z,1.55
2023-01-12T01:14:33.259Z,1.60
2023-01-12T01:16:59.910Z,1.58
2023-01-12T01:19:26.221Z,1.95
2023-01-12T01:21:52.524Z,1.63
2023-01-12T01:24:18.905Z,1.88
2023-01-12T01:26:45.290Z,1.38
2023-01-12T01:29:11.762Z,1.58
2023-01-12T01:31:38.189Z,1.83
2023-01-12T01:34:04.718Z,1.90
2023-01-12T01:36:31.393Z,2.15
2023-01-12T01:38:57.832Z,1.63
2023-01-12T01:41:30.402Z,2.10
2023-01-12T01:44:02.745Z,2.33
2023-01-12T01:46:47.775Z,1.73
2023-01-12T01:49:23.954Z,1.70
2023-01-12T01:51:52.990Z,1.80
2023-01-12T01:54:19.394Z,2.33
2023-01-12T01:56:46.294Z,2.35
2023-01-12T01:59:18.024Z,2.22
2023-01-12T02:01:44.926Z,1.73
2023-01-12T02:04:11.765Z,1.90
2023-01-12T02:06:38.678Z,2.35
2023-01-12T02:09:11.663Z,2.95
2023-01-12T02:11:38.004Z,2.13
2023-01-12T02:14:05.044Z,2.00
2023-01-12T02:16:33.625Z,2.30
2023-01-12T02:19:10.047Z,1.65
2023-01-12T02:22:03.724Z,1.90
2023-01-12T02:25:11.889Z,1.42
2023-01-12T02:28:03.147Z,1.27
2023-01-12T02:30:43.930Z,1.20
2023-01-12T02:33:35.185Z,2.28
2023-01-12T02:36:16.496Z,1.27
2023-01-12T02:38:45.781Z,1.63
2023-01-12T02:41:36.483Z,1.88
2023-01-12T02:44:04.637Z,1.83
2023-01-12T02:46:32.391Z,1.45
2023-01-12T02:49:21.116Z,1.80
2023-01-12T02:51:59.221Z,1.60
2023-01-12T02:54:28.695Z,1.60
2023-01-12T02:57:01.644Z,2.28
2023-01-12T02:59:31.857Z,1.70
2023-01-12T03:02:03.968Z,1.63
2023-01-12T03:04:32.635Z,1.58
2023-01-12T03:06:58.924Z,1.45
2023-01-12T03:09:31.931Z,2.65
2023-01-12T03:12:11.480Z,1.63
2023-01-12T03:14:41.773Z,1.92
2023-01-12T03:17:14.233Z,1.77
2023-01-12T03:19:43.714Z,1.88
2023-01-12T03:22:13.717Z,1.60
2023-01-12T03:24:53.648Z,1.70
2023-01-12T03:27:46.221Z,2.75
2023-01-12T03:30:37.407Z,1.75
2023-01-12T03:33:05.110Z,1.83
2023-01-12T03:35:38.507Z,1.83
2023-01-12T03:38:22.988Z,1.80
2023-01-12T03:40:57.074Z,1.30
2023-01-12T03:43:37.598Z,1.60
2023-01-12T03:46:14.396Z,1.52
2023-01-12T03:48:52.592Z,1.50
2023-01-12T03:51:25.889Z,1.50
2023-01-12T03:53:54.804Z,1.83
2023-01-12T03:56:24.167Z,1.98
2023-01-12T03:58:51.813Z,2.20
2023-01-12T04:01:18.370Z,1.63
2023-01-12T04:03:44.875Z,1.98
2023-01-12T04:06:11.377Z,1.85
2023-01-12T04:08:37.883Z,1.60
2023-01-12T04:11:04.338Z,1.50
2023-01-12T04:13:30.628Z,2.20
2023-01-12T04:15:57.012Z,1.38
2023-01-12T04:18:23.848Z,1.75
2023-01-12T04:20:50.165Z,1.48
2023-01-12T04:23:16.676Z,2.20
2023-01-12T04:25:43.295Z,2.15
2023-01-12T04:28:09.767Z,1.92
2023-01-12T04:30:36.182Z,2.75
2023-01-12T04:33:07.375Z,1.67
2023-01-12T04:35:33.889Z,3.10
2023-01-12T04:38:06.290Z,1.60
2023-01-12T04:40:32.634Z,1.60
2023-01-12T04:42:58.974Z,2.75
2023-01-12T04:45:25.303Z,2.20
2023-01-12T04:47:51.654Z,2.15
2023-01-12T04:50:18.250Z,1.67
2023-01-12T04:52:44.707Z,1.60
2023-01-12T04:55:11.317Z,2.15
2023-01-12T04:57:37.747Z,1.70
2023-01-12T05:00:05.518Z,1.92
2023-01-12T05:02:32.166Z,2.30
2023-01-12T05:04:58.593Z,1.73
2023-01-12T05:07:25.277Z,2.28
2023-01-12T05:09:51.611Z,2.70
2023-01-12T05:12:18.152Z,2.58
2023-01-12T05:14:44.706Z,1.88
2023-01-12T05:17:11.113Z,2.20
2023-01-12T05:19:37.452Z,2.40
2023-01-12T05:22:03.781Z,3.72
2023-01-12T05:24:30.188Z,3.35
2023-01-12T05:26:56.534Z,2.50
2023-01-12T05:29:22.878Z,3.25
2023-01-12T05:31:49.216Z,3.85
2023-01-12T05:34:15.863Z,3.60
2023-01-12T05:36:42.529Z,3.03
2023-01-12T05:39:09.052Z,2.50
2023-01-12T05:41:35.486Z,1.85
2023-01-12T05:44:02.095Z,2.92
2023-01-12T05:46:30.931Z,2.50
2023-01-12T05:48:58.260Z,3.92
2023-01-12T05:51:26.741Z,3.88
2023-01-12T05:53:53.095Z,3.35
2023-01-12T05:56:22.529Z,4.10
2023-01-12T05:58:50.844Z,4.60
2023-01-12T06:01:17.293Z,4.45
2023-01-12T06:03:43.733Z,4.15
2023-01-12T06:06:10.048Z,4.70
2023-01-12T06:08:36.426Z,3.78
2023-01-12T06:11:03.244Z,4.00
2023-01-12T06:13:30.336Z,2.83
2023-01-12T06:16:01.589Z,3.13
2023-01-12T06:18:28.048Z,2.40
2023-01-12T06:20:59.640Z,2.50
2023-01-12T06:23:34.993Z,3.50
2023-01-12T06:26:04.466Z,3.45
2023-01-12T06:28:31.180Z,2.65
2023-01-12T06:31:03.396Z,2.50
2023-01-12T06:33:31.270Z,3.00
2023-01-12T06:35:57.751Z,3.30
2023-01-12T06:38:26.203Z,2.17
2023-01-12T06:40:53.214Z,2.05
2023-01-12T06:43:19.822Z,1.90
2023-01-12T06:45:46.345Z,2.63
2023-01-12T06:48:12.688Z,2.15
2023-01-12T06:50:39.080Z,3.03
2023-01-12T06:53:06.172Z,2.75
2023-01-12T06:55:34.038Z,2.97
2023-01-12T06:58:03.679Z,2.28
2023-01-12T07:00:31.050Z,2.35
2023-01-12T07:02:57.939Z,2.65
2023-01-12T07:05:24.649Z,2.55
2023-01-12T07:07:57.309Z,5.10
2023-01-12T07:10:23.835Z,3.28
2023-01-12T07:12:50.559Z,4.03
2023-01-12T07:15:17.062Z,2.60
2023-01-12T07:17:43.659Z,3.15
2023-01-12T07:20:10.466Z,3.15
2023-01-12T07:22:36.934Z,2.50
2023-01-12T07:25:03.362Z,2.15
2023-01-12T07:27:29.721Z,2.38
2023-01-12T07:29:56.085Z,2.65
2023-01-12T07:32:25.723Z,1.83
2023-01-12T07:34:52.341Z,1.90
2023-01-12T07:37:18.797Z,2.60
2023-01-12T07:39:45.521Z,2.83
2023-01-12T07:42:12.055Z,2.38
2023-01-12T07:44:38.475Z,2.22
2023-01-12T07:47:05.032Z,1.55
2023-01-12T07:49:32.163Z,1.88
2023-01-12T07:51:58.900Z,1.45
2023-01-12T07:54:25.655Z,2.00
2023-01-12T07:56:52.241Z,1.88
2023-01-12T07:59:18.905Z,2.10
2023-01-12T08:01:45.375Z,1.75
2023-01-12T08:04:12.207Z,2.00
2023-01-12T08:06:39.850Z,1.77
2023-01-12T08:09:06.407Z,1.77
2023-01-12T08:11:32.858Z,1.80
2023-01-12T08:13:59.316Z,1.52
2023-01-12T08:16:31.625Z,1.30
2023-01-12T08:19:36.120Z,2.33
2023-01-12T08:22:07.652Z,1.48
2023-01-12T08:24:40.441Z,1.95
2023-01-12T08:27:08.930Z,1.55
2023-01-12T08:29:41.050Z,1.65
2023-01-12T08:34:36.501Z,2.30
2023-01-12T08:37:06.603Z,2.35
2023-01-12T08:39:33.431Z,1.33
2023-01-12T08:42:00.181Z,1.77
2023-01-12T08:44:26.685Z,2.28
2023-01-12T08:46:54.106Z,1.45
2023-01-12T08:49:24.600Z,1.33
2023-01-12T08:51:51.583Z,1.98
2023-01-12T08:54:20.235Z,2.22
2023-01-12T08:56:47.186Z,1.70
2023-01-12T08:59:13.845Z,1.65
2023-01-12T09:01:41.117Z,1.98
2023-01-12T09:04:08.236Z,2.60
2023-01-12T09:06:37.401Z,2.45
2023-01-12T09:09:06.822Z,1.35
2023-01-12T09:11:33.587Z,1.30
2023-01-12T09:14:00.414Z,2.88
2023-01-12T09:16:29.410Z,1.50
2023-01-12T09:18:56.775Z,1.67
2023-01-12T09:21:25.855Z,1.85
2023-01-12T09:23:53.261Z,2.33
2023-01-12T09:26:22.705Z,2.10
2023-01-12T09:28:50.065Z,2.45
2023-01-12T09:31:19.097Z,1.65
2023-01-12T09:33:46.762Z,1.33
2023-01-12T09:36:15.636Z,1.55
2023-01-12T09:38:43.799Z,1.35
2023-01-12T09:41:13.088Z,1.77
2023-01-12T09:43:41.196Z,1.83
2023-01-12T09:46:18.554Z,2.60
2023-01-12T09:48:45.304Z,2.78
2023-01-12T09:51:25.654Z,1.98
2023-01-12T09:53:52.508Z,1.98
2023-01-12T09:56:35.019Z,1.60
2023-01-12T09:59:18.485Z,1.75
2023-01-12T10:01:45.536Z,1.90
2023-01-12T10:04:13.589Z,1.60
2023-01-12T10:06:40.812Z,1.83
2023-01-12T10:09:14.831Z,1.75
2023-01-12T10:12:07.076Z,1.17
2023-01-12T10:14:33.582Z,1.48
2023-01-12T10:17:21.362Z,1.35
2023-01-12T10:19:56.897Z,1.20
2023-01-12T10:22:39.303Z,1.73
2023-01-12T10:25:48.435Z,1.30
2023-01-12T10:28:32.140Z,1.48
2023-01-12T10:31:00.056Z,1.38
2023-01-12T10:33:34.631Z,1.83
2023-01-12T10:36:07.427Z,1.70
2023-01-12T10:38:52.462Z,1.55
2023-01-12T10:41:30.732Z,2.05
2023-01-12T10:44:00.362Z,1.55
2023-01-12T10:46:32.929Z,1.50
2023-01-12T10:49:23.931Z,2.60
2023-01-12T10:54:24.267Z,1.58
2023-01-12T10:57:01.951Z,1.73
2023-01-12T10:59:34.211Z,1.73
2023-01-12T11:02:06.722Z,2.45
2023-01-12T11:04:51.103Z,2.85
2023-01-12T11:07:23.397Z,3.13
2023-01-12T11:09:50.058Z,2.30
2023-01-12T11:12:26.303Z,1.60
2023-01-12T11:15:23.544Z,2.40
2023-01-12T11:18:08.782Z,1.63
2023-01-12T11:20:49.140Z,2.00
2023-01-12T11:23:19.344Z,2.17
2023-01-12T11:25:50.055Z,1.58
2023-01-12T11:28:26.562Z,1.30
2023-01-12T11:30:55.102Z,1.40
2023-01-12T11:33:27.724Z,1.95
2023-01-12T11:36:06.844Z,1.42
2023-01-12T11:38:38.610Z,1.63
2023-01-12T11:41:10.267Z,1.15
2023-01-12T11:43:51.545Z,1.65
2023-01-12T11:46:39.533Z,1.55
2023-01-12T11:49:18.213Z,1.30
2023-01-12T11:51:48.746Z,1.77
2023-01-12T11:54:17.820Z,2.20
2023-01-12T11:57:03.719Z,1.55
2023-01-12T11:59:36.711Z,2.00
2023-01-12T12:03:00.489Z,1.42
2023-01-12T12:05:54.801Z,1.70
2023-01-12T12:08:35.961Z,0.95
2023-01-12T12:11:23.894Z,1.30
2023-01-12T12:13:53.122Z,1.63
2023-01-12T12:17:01.425Z,0.80
2023-01-12T12:19:42.692Z,0.90
2023-01-12T12:22:50.936Z,0.90
2023-01-12T12:25:45.833Z,0.80
2023-01-12T12:28:22.174Z,1.00
2023-01-12T12:31:00.739Z,1.10
2023-01-12T12:33:41.671Z,1.70
2023-01-12T12:39:09.862Z,1.10
2023-01-12T12:41:41.645Z,0.80
2023-01-12T12:44:34.674Z,1.25
2023-01-12T12:47:11.260Z,1.00
2023-01-12T12:49:39.126Z,0.90
2023-01-12T12:52:07.795Z,1.35
2023-01-12T12:54:35.059Z,1.20
2023-01-12T12:57:01.898Z,1.00
2023-01-12T12:59:52.817Z,1.50
2023-01-12T13:02:37.651Z,1.08
2023-01-12T13:05:07.511Z,1.15
2023-01-12T13:07:37.799Z,0.88
2023-01-12T13:10:32.003Z,1.05
2023-01-12T13:13:02.930Z,0.88
2023-01-12T13:17:59.927Z,0.80
2023-01-12T13:20:48.669Z,0.70
2023-01-12T13:23:45.782Z,1.35
2023-01-12T13:26:33.690Z,1.70
2023-01-12T13:29:27.997Z,1.15
2023-01-12T13:31:59.764Z,0.88
2023-01-12T13:34:39.662Z,1.23
2023-01-12T13:37:23.780Z,0.80
2023-01-12T13:40:13.281Z,0.70
2023-01-12T13:42:39.806Z,1.10
2023-01-12T13:45:11.217Z,0.70
2023-01-12T13:47:37.888Z,0.70
2023-01-12T13:50:07.111Z,0.60
2023-01-12T13:52:35.776Z,1.00
2023-01-12T13:55:04.843Z,0.80
2023-01-12T13:57:31.711Z,0.80
2023-01-12T14:00:07.011Z,0.80
2023-01-12T14:02:33.587Z,0.75
2023-01-12T14:05:07.438Z,0.98
2023-01-12T14:07:51.942Z,0.90
2023-01-12T14:10:49.140Z,0.80
2023-01-12T14:13:34.036Z,0.75
2023-01-12T14:16:09.839Z,0.80
2023-01-12T14:18:44.693Z,1.10
2023-01-12T14:21:33.177Z,0.90
2023-01-12T14:24:17.793Z,1.17
2023-01-12T14:26:44.182Z,0.90
2023-01-12T14:29:10.617Z,0.80
2023-01-12T14:31:40.435Z,1.05
2023-01-12T14:34:35.031Z,0.73
2023-01-12T14:37:04.384Z,0.95
2023-01-12T14:39:38.229Z,1.08
2023-01-12T14:42:04.859Z,0.90
2023-01-12T14:44:34.007Z,0.70
2023-01-12T14:47:00.637Z,1.10
2023-01-12T14:49:30.238Z,1.25
2023-01-12T14:51:59.715Z,1.00
2023-01-12T14:54:29.154Z,0.80
2023-01-12T14:57:22.519Z,0.60
2023-01-12T14:59:49.673Z,1.13
2023-01-12T15:02:25.433Z,0.70
2023-01-12T15:05:23.190Z,0.90
2023-01-12T15:08:22.076Z,0.80
2023-01-12T15:11:14.674Z,1.23
2023-01-12T15:13:41.232Z,0.85
2023-01-12T15:16:08.616Z,0.68
2023-01-12T15:18:35.071Z,0.70
2023-01-12T15:21:02.781Z,1.38
2023-01-12T15:23:32.582Z,0.60
2023-01-12T15:25:59.291Z,0.90
2023-01-12T15:28:25.756Z,0.70
2023-01-12T15:30:52.925Z,0.63
2023-01-12T15:33:19.495Z,0.95
2023-01-12T15:35:46.944Z,1.20
2023-01-12T15:38:15.142Z,0.90
2023-01-12T15:40:42.380Z,1.00
2023-01-12T15:43:14.156Z,0.75
2023-01-12T15:45:44.097Z,1.00
2023-01-12T15:48:11.636Z,0.90
2023-01-12T15:50:40.398Z,0.90
2023-01-12T15:53:22.408Z,0.60
2023-01-12T15:55:49.574Z,0.80
2023-01-12T15:58:16.499Z,0.70
2023-01-12T16:00:46.849Z,0.90
2023-01-12T16:03:34.647Z,0.70
2023-01-12T16:06:01.207Z,1.02
2023-01-12T16:08:27.936Z,0.93
2023-01-12T16:10:54.493Z,0.75
2023-01-12T16:13:20.978Z,0.95
2023-01-12T16:15:47.396Z,0.90
2023-01-12T16:18:14.091Z,0.90
2023-01-12T16:20:40.513Z,0.98
2023-01-12T16:23:06.823Z,0.85
2023-01-12T16:25:33.200Z,1.13
2023-01-12T16:27:59.831Z,1.15
2023-01-12T16:30:26.305Z,0.95
2023-01-12T16:32:52.680Z,1.08
2023-01-12T16:35:19.096Z,1.50
2023-01-12T16:37:45.375Z,1.52
2023-01-12T16:40:12.282Z,1.55
2023-01-12T16:42:38.782Z,3.95
2023-01-12T16:45:05.888Z,1.90
2023-01-12T16:47:32.534Z,1.23
2023-01-12T16:49:59.709Z,1.25
2023-01-12T16:52:26.628Z,1.10
2023-01-12T16:54:53.128Z,1.00
2023-01-12T16:57:19.487Z,1.27
2023-01-12T16:59:46.308Z,0.80
2023-01-12T17:02:15.990Z,1.27
2023-01-12T17:04:43.047Z,0.97
2023-01-12T17:07:10.267Z,1.23
2023-01-12T17:09:38.856Z,1.17
2023-01-12T17:12:06.272Z,0.95
2023-01-12T17:14:33.477Z,1.35
2023-01-12T17:17:02.531Z,1.50
2023-01-12T17:19:31.210Z,1.30
2023-01-12T17:21:59.427Z,1.27
2023-01-12T17:24:26.006Z,1.48
2023-01-12T17:26:53.489Z,1.23
2023-01-12T17:29:20.604Z,1.40
2023-01-12T17:31:47.569Z,1.10
2023-01-12T17:34:15.434Z,1.45
2023-01-12T17:36:42.393Z,1.40
2023-01-12T17:39:10.056Z,1.35
2023-01-12T17:41:38.025Z,1.20
2023-01-12T17:44:05.791Z,1.83
2023-01-12T17:46:33.284Z,1.70
2023-01-12T17:49:05.669Z,1.60
2023-01-12T17:51:32.563Z,1.35
2023-01-12T17:54:00.916Z,1.50
2023-01-12T17:56:29.406Z,1.73
2023-01-12T17:58:56.177Z,1.60
2023-01-12T18:01:27.555Z,1.80
2023-01-12T18:03:54.026Z,1.75
2023-01-12T18:06:26.482Z,1.33
2023-01-12T18:08:55.110Z,1.27
2023-01-12T18:11:21.853Z,1.77
2023-01-12T18:13:48.800Z,1.80
2023-01-12T18:16:16.200Z,1.85
2023-01-12T18:18:43.535Z,1.63
2023-01-12T18:21:12.303Z,2.10
2023-01-12T18:23:39.363Z,1.45
2023-01-12T18:26:08.634Z,1.90
2023-01-12T18:28:37.741Z,1.73
2023-01-12T18:31:09.958Z,1.30
2023-01-12T18:33:37.365Z,1.40
2023-01-12T18:36:11.377Z,1.80
2023-01-12T18:38:38.192Z,1.30
2023-01-12T18:41:05.227Z,1.30
2023-01-12T18:43:32.181Z,1.63
2023-01-12T18:46:08.280Z,1.73
2023-01-12T18:48:37.304Z,1.65
2023-01-12T18:51:04.213Z,1.33
2023-01-12T18:53:30.855Z,1.20
2023-01-12T18:55:57.973Z,1.30
2023-01-12T18:58:29.437Z,1.52
2023-01-12T19:00:58.784Z,1.73
2023-01-12T19:03:25.412Z,1.55
2023-01-12T19:05:52.347Z,1.05
2023-01-12T19:08:19.000Z,1.60
2023-01-12T19:10:45.664Z,1.40
2023-01-12T19:13:12.262Z,1.58
2023-01-12T19:15:40.370Z,1.40
2023-01-12T19:18:06.879Z,1.80
2023-01-12T19:20:33.915Z,1.90
2023-01-12T19:23:00.733Z,1.27
2023-01-12T19:25:28.423Z,1.75
2023-01-12T19:27:54.928Z,1.55
2023-01-12T19:30:22.582Z,1.20
2023-01-12T19:32:49.362Z,1.50
2023-01-12T19:35:15.767Z,1.27
2023-01-12T19:37:47.436Z,1.23
2023-01-12T19:40:14.603Z,1.60
2023-01-12T19:42:41.247Z,1.63
2023-01-12T19:45:08.184Z,1.13
2023-01-12T19:47:35.808Z,1.20
2023-01-12T19:50:02.685Z,1.20
2023-01-12T19:52:29.127Z,0.98
2023-01-12T19:54:55.587Z,0.85
2023-01-12T19:57:21.992Z,1.02
2023-01-12T19:59:48.429Z,1.33
2023-01-12T20:02:15.030Z,1.05
2023-01-12T20:04:41.770Z,1.20
2023-01-12T20:07:08.665Z,1.00
2023-01-12T20:09:35.206Z,1.08
2023-01-12T20:12:01.710Z,1.23
2023-01-12T20:14:28.057Z,0.90
2023-01-12T20:16:54.459Z,1.17
2023-01-12T20:19:21.044Z,1.00
2023-01-12T20:21:48.353Z,0.70
2023-01-12T20:24:15.488Z,0.70
2023-01-12T20:26:42.115Z,1.00
2023-01-12T20:29:08.774Z,0.90
2023-01-12T20:31:35.762Z,1.08
2023-01-12T20:34:02.365Z,0.90
2023-01-12T20:36:29.045Z,0.80
2023-01-12T20:38:55.743Z,1.00
2023-01-12T20:41:25.465Z,0.80
2023-01-12T20:43:51.884Z,1.40
2023-01-12T20:46:18.331Z,0.90
2023-01-12T20:48:44.869Z,0.88
2023-01-12T20:51:13.590Z,0.90
2023-01-12T20:53:40.124Z,1.15
2023-01-12T20:56:07.798Z,1.00
2023-01-12T20:58:34.995Z,0.70
2023-01-12T21:01:02.132Z,1.02
2023-01-12T21:03:28.504Z,0.93
2023-01-12T21:05:55.118Z,0.80
2023-01-12T21:08:21.567Z,1.00
2023-01-12T21:10:51.465Z,1.00
2023-01-12T21:13:19.266Z,0.83
2023-01-12T21:15:46.026Z,0.75
2023-01-12T21:18:12.755Z,1.45
2023-01-12T21:20:43.442Z,0.85
2023-01-12T21:23:10.358Z,1.33
2023-01-12T21:25:41.592Z,1.15
2023-01-12T21:28:08.054Z,0.90
2023-01-12T21:30:34.407Z,0.90
2023-01-12T21:33:00.719Z,0.90
2023-01-12T21:35:27.338Z,1.35
2023-01-12T21:37:53.979Z,1.15
2023-01-12T21:40:20.398Z,1.40
2023-01-12T21:42:49.344Z,1.00
2023-01-12T21:45:15.728Z,1.10
2023-01-12T21:47:42.267Z,1.10
2023-01-12T21:50:09.867Z,1.00
2023-01-12T21:52:36.527Z,0.85
2023-01-12T21:55:03.379Z,0.68
2023-01-12T21:57:30.101Z,1.10
2023-01-12T21:59:56.617Z,1.00
2023-01-12T22:02:23.188Z,0.90
2023-01-12T22:04:50.035Z,0.90
2023-01-12T22:07:16.718Z,1.00
2023-01-12T22:09:43.338Z,0.90
2023-01-12T22:12:10.079Z,0.80
2023-01-12T22:14:36.701Z,1.00
2023-01-12T22:17:03.219Z,1.60
2023-01-12T22:19:29.984Z,0.98
2023-01-12T22:21:56.914Z,1.20
2023-01-12T22:24:23.678Z,1.10
2023-01-12T22:26:50.300Z,0.90
2023-01-12T22:29:17.032Z,1.00
2023-01-12T22:31:43.489Z,1.05
2023-01-12T22:34:09.923Z,1.00
2023-01-12T22:36:36.539Z,1.15
2023-01-12T22:39:02.977Z,0.95
2023-01-12T22:41:29.364Z,0.70
2023-01-12T22:43:55.720Z,1.42
2023-01-12T22:46:24.828Z,0.73
2023-01-12T22:48:53.244Z,1.05
2023-01-12T22:51:21.273Z,1.30
2023-01-12T22:53:48.351Z,1.13
2023-01-12T22:56:15.023Z,1.10
2023-01-12T22:58:49.945Z,1.02
2023-01-12T23:01:18.770Z,0.80
2023-01-12T23:03:46.380Z,0.95
2023-01-12T23:06:15.684Z,0.85
2023-01-12T23:08:44.479Z,0.90
2023-01-12T23:11:13.794Z,0.90
2023-01-12T23:13:41.321Z,1.20
2023-01-12T23:16:09.718Z,0.80
2023-01-12T23:18:38.315Z,1.00
2023-01-12T23:21:10.321Z,0.90
2023-01-12T23:23:38.414Z,0.82
2023-01-12T23:26:07.582Z,1.05
2023-01-12T23:28:34.616Z,0.90
2023-01-12T23:31:22.034Z,0.80
2023-01-12T23:33:49.245Z,1.65
2023-01-12T23:36:27.469Z,0.80
2023-01-12T23:38:56.351Z,1.20
2023-01-12T23:41:24.937Z,0.85
2023-01-12T23:43:53.267Z,1.02
2023-01-12T23:46:20.211Z,0.80
2023-01-12T23:48:46.791Z,0.90
2023-01-12T23:51:13.466Z,0.80
2023-01-12T23:53:40.013Z,0.90
2023-01-12T23:56:11.771Z,0.90
2023-01-12T23:58:38.463Z,1.10
